Aviation Digital Data Service (ADDS)

Output produced by METARs form (1811 UTC 14 August 2018)
found at http://www.aviationweather.gov/adds/metars/
 
OBBI 141800Z 31008KT CAVOK 34/24 Q0997 NOSIG
TAF AMD OBBI 141703Z 1418/1600 33010KT CAVOK 
     BECMG 1501/1502 33015G25KT 
     BECMG 1514/1516 32008KT